KBGD

Hutchinson County Airport

Borger, Texas, USA
METAR KBGD 162151Z AUTO 26017G28KT 10SM CLR 21/M01 A2987 RMK AO2 PK WND 25034/2111 SLP103 T02061006
Observed Flight Rules
Jan-16 @ 21:51 UTC (42 minutes ago) Visual Flight Rules
Wind Visibility Clouds
260° at 17 knots
 Gusting to 28 knots
10 miles
  • Clear skies
Temperatures Readings
Current 21°C / 70°F
Dewpoint -1°C / 30°F
Humidity 23%
Altimeter 29.87" Hg
Pressure 1010.3 hPa
Elevation 927
METAR KBGD 162151Z AUTO 26017G28KT 10SM CLR 21/M01 A2987 RMK AO2 PK WND 25034/2111 SLP103 T02061006
Observed Flight Rules
Jan-16 @ 21:51 UTC
(42 minutes ago)
VFR
Wind Visibility
260° at 17 knots
 Gusting to 28 knots
10 miles
Clouds
  • Clear skies
Temperature Dewpoint
21°C / 70°F -1°C / 30°F
Humidity Altimeter Pressure
23% 29.87" Hg 1010.3 hPa